sensor_id;sensor_type;location;lat;lon;timestamp;P1;durP1;ratioP1;P2;durP2;ratioP2
59972;SDS011;55298;-36.624;-64.282;2024-03-02T00:01:41;11.07;;;8.38;;
59972;SDS011;55298;-36.624;-64.282;2024-03-02T00:04:09;11.02;;;7.72;;
59972;SDS011;55298;-36.624;-64.282;2024-03-02T00:06:38;10.00;;;8.15;;
59972;SDS011;55298;-36.624;-64.282;2024-03-02T00:09:06;15.85;;;12.15;;
59972;SDS011;55298;-36.624;-64.282;2024-03-02T00:11:38;17.55;;;15.75;;
59972;SDS011;55298;-36.624;-64.282;2024-03-02T00:14:10;15.80;;;12.02;;
59972;SDS011;55298;-36.624;-64.282;2024-03-02T00:16:39;12.25;;;11.05;;
59972;SDS011;55298;-36.624;-64.282;2024-03-02T00:19:07;16.55;;;13.43;;
59972;SDS011;55298;-36.624;-64.282;2024-03-02T00:21:36;10.10;;;7.45;;
59972;SDS011;55298;-36.624;-64.282;2024-03-02T00:24:18;15.95;;;10.73;;
59972;SDS011;55298;-36.624;-64.282;2024-03-02T00:27:01;8.48;;;7.40;;
59972;SDS011;55298;-36.624;-64.282;2024-03-02T00:29:32;10.40;;;6.93;;
59972;SDS011;55298;-36.624;-64.282;2024-03-02T00:32:01;12.68;;;9.00;;
59972;SDS011;55298;-36.624;-64.282;2024-03-02T00:34:30;15.23;;;13.55;;
59972;SDS011;55298;-36.624;-64.282;2024-03-02T00:36:59;21.65;;;18.08;;
59972;SDS011;55298;-36.624;-64.282;2024-03-02T00:39:26;18.80;;;14.40;;
59972;SDS011;55298;-36.624;-64.282;2024-03-02T00:41:55;16.25;;;12.13;;
59972;SDS011;55298;-36.624;-64.282;2024-03-02T00:44:25;13.43;;;11.40;;
59972;SDS011;55298;-36.624;-64.282;2024-03-02T00:46:55;11.45;;;10.25;;
59972;SDS011;55298;-36.624;-64.282;2024-03-02T00:49:23;10.13;;;8.00;;
59972;SDS011;55298;-36.624;-64.282;2024-03-02T00:51:54;16.50;;;12.25;;
59972;SDS011;55298;-36.624;-64.282;2024-03-02T00:54:26;14.57;;;11.52;;
59972;SDS011;55298;-36.624;-64.282;2024-03-02T00:56:56;11.93;;;8.80;;
59972;SDS011;55298;-36.624;-64.282;2024-03-02T00:59:24;15.00;;;13.48;;
59972;SDS011;55298;-36.624;-64.282;2024-03-02T01:01:56;10.55;;;9.55;;
59972;SDS011;55298;-36.624;-64.282;2024-03-02T01:04:24;20.50;;;15.57;;
59972;SDS011;55298;-36.624;-64.282;2024-03-02T01:06:55;23.02;;;17.77;;
59972;SDS011;55298;-36.624;-64.282;2024-03-02T01:09:25;34.38;;;29.77;;
59972;SDS011;55298;-36.624;-64.282;2024-03-02T01:12:03;33.63;;;28.17;;
59972;SDS011;55298;-36.624;-64.282;2024-03-02T01:14:32;35.55;;;28.05;;
59972;SDS011;55298;-36.624;-64.282;2024-03-02T01:17:03;23.50;;;18.60;;
59972;SDS011;55298;-36.624;-64.282;2024-03-02T01:19:33;16.92;;;15.13;;
59972;SDS011;55298;-36.624;-64.282;2024-03-02T01:22:02;37.33;;;30.02;;
59972;SDS011;55298;-36.624;-64.282;2024-03-02T01:24:30;24.48;;;21.88;;
59972;SDS011;55298;-36.624;-64.282;2024-03-02T01:27:00;34.85;;;28.05;;
59972;SDS011;55298;-36.624;-64.282;2024-03-02T01:29:30;23.52;;;19.15;;
59972;SDS011;55298;-36.624;-64.282;2024-03-02T01:32:01;19.13;;;15.20;;
59972;SDS011;55298;-36.624;-64.282;2024-03-02T01:34:32;15.93;;;13.48;;
59972;SDS011;55298;-36.624;-64.282;2024-03-02T01:37:01;16.00;;;14.32;;
59972;SDS011;55298;-36.624;-64.282;2024-03-02T01:39:33;16.92;;;14.13;;
59972;SDS011;55298;-36.624;-64.282;2024-03-02T01:42:01;15.65;;;11.57;;
59972;SDS011;55298;-36.624;-64.282;2024-03-02T01:44:30;10.75;;;9.63;;
59972;SDS011;55298;-36.624;-64.282;2024-03-02T01:46:58;17.42;;;13.18;;
59972;SDS011;55298;-36.624;-64.282;2024-03-02T01:49:26;29.13;;;23.98;;
59972;SDS011;55298;-36.624;-64.282;2024-03-02T01:51:54;41.55;;;36.78;;
59972;SDS011;55298;-36.624;-64.282;2024-03-02T01:54:23;23.05;;;19.70;;
59972;SDS011;55298;-36.624;-64.282;2024-03-02T01:56:50;24.90;;;22.25;;
59972;SDS011;55298;-36.624;-64.282;2024-03-02T01:59:18;21.48;;;19.08;;
59972;SDS011;55298;-36.624;-64.282;2024-03-02T02:01:46;16.85;;;14.18;;
59972;SDS011;55298;-36.624;-64.282;2024-03-02T02:04:14;20.77;;;18.55;;
59972;SDS011;55298;-36.624;-64.282;2024-03-02T02:06:43;23.67;;;20.83;;
59972;SDS011;55298;-36.624;-64.282;2024-03-02T02:09:11;23.42;;;18.40;;
59972;SDS011;55298;-36.624;-64.282;2024-03-02T02:11:39;22.92;;;20.60;;
59972;SDS011;55298;-36.624;-64.282;2024-03-02T02:14:11;44.10;;;39.47;;
59972;SDS011;55298;-36.624;-64.282;2024-03-02T02:16:39;19.98;;;15.45;;
59972;SDS011;55298;-36.624;-64.282;2024-03-02T02:19:07;15.77;;;14.13;;
59972;SDS011;55298;-36.624;-64.282;2024-03-02T02:21:36;13.60;;;11.10;;
59972;SDS011;55298;-36.624;-64.282;2024-03-02T02:24:04;16.63;;;12.05;;
59972;SDS011;55298;-36.624;-64.282;2024-03-02T02:26:32;9.88;;;8.73;;
59972;SDS011;55298;-36.624;-64.282;2024-03-02T02:29:09;11.00;;;9.02;;
59972;SDS011;55298;-36.624;-64.282;2024-03-02T02:31:38;8.60;;;7.40;;
59972;SDS011;55298;-36.624;-64.282;2024-03-02T02:34:07;10.73;;;8.75;;
59972;SDS011;55298;-36.624;-64.282;2024-03-02T02:36:43;12.20;;;9.77;;
59972;SDS011;55298;-36.624;-64.282;2024-03-02T02:39:18;11.85;;;10.65;;
59972;SDS011;55298;-36.624;-64.282;2024-03-02T02:41:50;16.55;;;14.93;;
59972;SDS011;55298;-36.624;-64.282;2024-03-02T02:44:20;10.82;;;9.25;;
59972;SDS011;55298;-36.624;-64.282;2024-03-02T02:47:35;10.85;;;9.85;;
59972;SDS011;55298;-36.624;-64.282;2024-03-02T02:50:04;12.75;;;9.30;;
59972;SDS011;55298;-36.624;-64.282;2024-03-02T02:52:35;8.82;;;7.90;;
59972;SDS011;55298;-36.624;-64.282;2024-03-02T02:55:05;9.32;;;8.25;;
59972;SDS011;55298;-36.624;-64.282;2024-03-02T02:57:35;7.65;;;6.35;;
59972;SDS011;55298;-36.624;-64.282;2024-03-02T03:00:08;9.48;;;8.57;;
59972;SDS011;55298;-36.624;-64.282;2024-03-02T03:02:48;9.90;;;8.57;;
59972;SDS011;55298;-36.624;-64.282;2024-03-02T03:05:20;12.20;;;9.20;;
59972;SDS011;55298;-36.624;-64.282;2024-03-02T03:07:48;8.00;;;7.30;;
59972;SDS011;55298;-36.624;-64.282;2024-03-02T03:10:16;12.68;;;11.48;;
59972;SDS011;55298;-36.624;-64.282;2024-03-02T03:12:49;9.48;;;8.00;;
59972;SDS011;55298;-36.624;-64.282;2024-03-02T03:15:22;9.38;;;7.05;;
59972;SDS011;55298;-36.624;-64.282;2024-03-02T03:17:51;7.55;;;5.72;;
59972;SDS011;55298;-36.624;-64.282;2024-03-02T03:20:20;8.63;;;6.70;;
59972;SDS011;55298;-36.624;-64.282;2024-03-02T03:22:51;5.72;;;5.20;;
59972;SDS011;55298;-36.624;-64.282;2024-03-02T03:25:21;6.35;;;5.72;;
59972;SDS011;55298;-36.624;-64.282;2024-03-02T03:27:49;75.40;;;51.42;;
59972;SDS011;55298;-36.624;-64.282;2024-03-02T03:30:23;16.92;;;14.90;;
59972;SDS011;55298;-36.624;-64.282;2024-03-02T03:33:04;10.15;;;9.25;;
59972;SDS011;55298;-36.624;-64.282;2024-03-02T03:35:33;6.30;;;5.70;;
59972;SDS011;55298;-36.624;-64.282;2024-03-02T03:38:06;9.80;;;8.80;;
59972;SDS011;55298;-36.624;-64.282;2024-03-02T03:40:37;23.08;;;17.50;;
59972;SDS011;55298;-36.624;-64.282;2024-03-02T03:43:05;70.25;;;62.95;;
59972;SDS011;55298;-36.624;-64.282;2024-03-02T03:45:56;19.92;;;18.08;;
59972;SDS011;55298;-36.624;-64.282;2024-03-02T03:48:24;40.63;;;36.75;;
59972;SDS011;55298;-36.624;-64.282;2024-03-02T03:51:02;11.00;;;9.38;;
59972;SDS011;55298;-36.624;-64.282;2024-03-02T03:53:30;13.18;;;11.38;;
59972;SDS011;55298;-36.624;-64.282;2024-03-02T03:56:00;18.38;;;16.35;;
59972;SDS011;55298;-36.624;-64.282;2024-03-02T03:58:27;44.25;;;38.40;;
59972;SDS011;55298;-36.624;-64.282;2024-03-02T04:00:55;29.70;;;22.65;;
59972;SDS011;55298;-36.624;-64.282;2024-03-02T04:03:44;24.63;;;20.48;;
59972;SDS011;55298;-36.624;-64.282;2024-03-02T04:06:12;5.97;;;5.40;;
59972;SDS011;55298;-36.624;-64.282;2024-03-02T04:08:42;8.60;;;7.70;;
59972;SDS011;55298;-36.624;-64.282;2024-03-02T04:11:09;14.43;;;11.65;;
59972;SDS011;55298;-36.624;-64.282;2024-03-02T04:13:37;10.80;;;8.50;;
59972;SDS011;55298;-36.624;-64.282;2024-03-02T04:16:05;7.60;;;6.85;;
59972;SDS011;55298;-36.624;-64.282;2024-03-02T04:18:33;6.20;;;5.47;;
59972;SDS011;55298;-36.624;-64.282;2024-03-02T04:21:00;6.57;;;4.65;;
59972;SDS011;55298;-36.624;-64.282;2024-03-02T04:23:28;5.95;;;5.38;;
59972;SDS011;55298;-36.624;-64.282;2024-03-02T04:25:56;7.13;;;4.78;;
59972;SDS011;55298;-36.624;-64.282;2024-03-02T04:28:23;4.88;;;4.57;;
59972;SDS011;55298;-36.624;-64.282;2024-03-02T04:30:51;7.22;;;5.47;;
59972;SDS011;55298;-36.624;-64.282;2024-03-02T04:33:19;7.93;;;7.18;;
59972;SDS011;55298;-36.624;-64.282;2024-03-02T04:35:47;5.90;;;5.30;;
59972;SDS011;55298;-36.624;-64.282;2024-03-02T04:38:14;5.85;;;5.20;;
59972;SDS011;55298;-36.624;-64.282;2024-03-02T04:40:42;4.65;;;4.13;;
59972;SDS011;55298;-36.624;-64.282;2024-03-02T04:43:10;4.80;;;4.40;;
59972;SDS011;55298;-36.624;-64.282;2024-03-02T04:45:41;4.10;;;3.67;;
59972;SDS011;55298;-36.624;-64.282;2024-03-02T04:48:08;28.02;;;6.05;;
59972;SDS011;55298;-36.624;-64.282;2024-03-02T04:50:37;11.38;;;7.10;;
59972;SDS011;55298;-36.624;-64.282;2024-03-02T04:53:04;7.07;;;4.35;;
59972;SDS011;55298;-36.624;-64.282;2024-03-02T04:55:32;4.82;;;4.30;;
59972;SDS011;55298;-36.624;-64.282;2024-03-02T04:58:19;5.03;;;4.25;;
59972;SDS011;55298;-36.624;-64.282;2024-03-02T05:00:46;5.18;;;3.97;;
59972;SDS011;55298;-36.624;-64.282;2024-03-02T05:03:14;5.93;;;4.43;;
59972;SDS011;55298;-36.624;-64.282;2024-03-02T05:05:41;5.53;;;4.68;;
59972;SDS011;55298;-36.624;-64.282;2024-03-02T05:08:10;5.18;;;4.70;;
59972;SDS011;55298;-36.624;-64.282;2024-03-02T05:10:38;4.72;;;4.22;;
59972;SDS011;55298;-36.624;-64.282;2024-03-02T05:13:07;5.18;;;4.82;;
59972;SDS011;55298;-36.624;-64.282;2024-03-02T05:15:35;6.30;;;4.72;;
59972;SDS011;55298;-36.624;-64.282;2024-03-02T05:18:03;4.30;;;4.00;;
59972;SDS011;55298;-36.624;-64.282;2024-03-02T05:20:31;4.30;;;3.90;;
59972;SDS011;55298;-36.624;-64.282;2024-03-02T05:22:58;5.03;;;4.50;;
59972;SDS011;55298;-36.624;-64.282;2024-03-02T05:25:26;5.18;;;4.60;;
59972;SDS011;55298;-36.624;-64.282;2024-03-02T05:27:53;4.60;;;4.20;;
59972;SDS011;55298;-36.624;-64.282;2024-03-02T05:30:22;4.28;;;3.97;;
59972;SDS011;55298;-36.624;-64.282;2024-03-02T05:32:51;6.30;;;4.50;;
59972;SDS011;55298;-36.624;-64.282;2024-03-02T05:35:19;4.90;;;4.35;;
59972;SDS011;55298;-36.624;-64.282;2024-03-02T05:37:47;4.55;;;4.00;;
59972;SDS011;55298;-36.624;-64.282;2024-03-02T05:40:14;4.30;;;3.85;;
59972;SDS011;55298;-36.624;-64.282;2024-03-02T05:42:42;4.43;;;4.13;;
59972;SDS011;55298;-36.624;-64.282;2024-03-02T05:47:43;5.18;;;4.78;;
59972;SDS011;55298;-36.624;-64.282;2024-03-02T05:50:12;4.50;;;4.13;;
59972;SDS011;55298;-36.624;-64.282;2024-03-02T05:52:40;6.32;;;4.57;;
59972;SDS011;55298;-36.624;-64.282;2024-03-02T05:55:09;4.43;;;4.03;;
59972;SDS011;55298;-36.624;-64.282;2024-03-02T05:57:39;4.78;;;4.25;;
59972;SDS011;55298;-36.624;-64.282;2024-03-02T06:00:21;4.88;;;4.35;;
59972;SDS011;55298;-36.624;-64.282;2024-03-02T06:02:48;5.53;;;5.03;;
59972;SDS011;55298;-36.624;-64.282;2024-03-02T06:05:18;6.28;;;4.20;;
59972;SDS011;55298;-36.624;-64.282;2024-03-02T06:07:52;4.93;;;4.50;;
59972;SDS011;55298;-36.624;-64.282;2024-03-02T06:10:22;4.75;;;4.35;;
59972;SDS011;55298;-36.624;-64.282;2024-03-02T06:12:49;4.53;;;4.20;;
59972;SDS011;55298;-36.624;-64.282;2024-03-02T06:15:19;17.60;;;3.30;;
59972;SDS011;55298;-36.624;-64.282;2024-03-02T06:17:47;27.17;;;3.42;;
59972;SDS011;55298;-36.624;-64.282;2024-03-02T06:20:15;11.95;;;2.17;;
59972;SDS011;55298;-36.624;-64.282;2024-03-02T06:22:42;10.18;;;2.58;;
59972;SDS011;55298;-36.624;-64.282;2024-03-02T06:25:10;10.30;;;2.10;;
59972;SDS011;55298;-36.624;-64.282;2024-03-02T06:27:39;58.70;;;7.40;;
59972;SDS011;55298;-36.624;-64.282;2024-03-02T06:30:06;18.90;;;3.35;;
59972;SDS011;55298;-36.624;-64.282;2024-03-02T06:32:34;15.52;;;2.70;;
59972;SDS011;55298;-36.624;-64.282;2024-03-02T06:35:02;13.02;;;2.30;;
59972;SDS011;55298;-36.624;-64.282;2024-03-02T06:37:33;8.95;;;2.15;;
59972;SDS011;55298;-36.624;-64.282;2024-03-02T06:40:00;9.55;;;2.05;;
59972;SDS011;55298;-36.624;-64.282;2024-03-02T06:42:28;6.53;;;1.98;;
59972;SDS011;55298;-36.624;-64.282;2024-03-02T06:44:59;7.35;;;1.98;;
59972;SDS011;55298;-36.624;-64.282;2024-03-02T06:47:26;9.15;;;2.80;;
59972;SDS011;55298;-36.624;-64.282;2024-03-02T06:49:54;7.35;;;2.45;;
59972;SDS011;55298;-36.624;-64.282;2024-03-02T06:52:24;6.43;;;2.63;;
59972;SDS011;55298;-36.624;-64.282;2024-03-02T06:54:51;4.65;;;2.53;;
59972;SDS011;55298;-36.624;-64.282;2024-03-02T06:57:19;4.70;;;2.22;;
59972;SDS011;55298;-36.624;-64.282;2024-03-02T06:59:47;4.28;;;2.13;;
59972;SDS011;55298;-36.624;-64.282;2024-03-02T07:02:17;4.85;;;2.30;;
59972;SDS011;55298;-36.624;-64.282;2024-03-02T07:04:44;4.28;;;2.38;;
59972;SDS011;55298;-36.624;-64.282;2024-03-02T07:07:12;6.25;;;2.60;;
59972;SDS011;55298;-36.624;-64.282;2024-03-02T07:09:40;3.42;;;2.30;;
59972;SDS011;55298;-36.624;-64.282;2024-03-02T07:12:08;5.05;;;2.60;;
59972;SDS011;55298;-36.624;-64.282;2024-03-02T07:14:36;3.30;;;2.30;;
59972;SDS011;55298;-36.624;-64.282;2024-03-02T07:17:22;2.75;;;2.45;;
59972;SDS011;55298;-36.624;-64.282;2024-03-02T07:19:51;2.50;;;2.30;;
59972;SDS011;55298;-36.624;-64.282;2024-03-02T07:22:19;2.80;;;2.35;;
59972;SDS011;55298;-36.624;-64.282;2024-03-02T07:24:47;3.65;;;2.28;;
59972;SDS011;55298;-36.624;-64.282;2024-03-02T07:27:15;2.90;;;2.55;;
59972;SDS011;55298;-36.624;-64.282;2024-03-02T07:29:43;4.32;;;2.70;;
59972;SDS011;55298;-36.624;-64.282;2024-03-02T07:32:11;3.03;;;2.22;;
59972;SDS011;55298;-36.624;-64.282;2024-03-02T07:34:42;4.05;;;2.38;;
59972;SDS011;55298;-36.624;-64.282;2024-03-02T07:37:10;2.30;;;2.10;;
59972;SDS011;55298;-36.624;-64.282;2024-03-02T07:39:38;3.78;;;2.20;;
59972;SDS011;55298;-36.624;-64.282;2024-03-02T07:42:06;3.22;;;2.42;;
59972;SDS011;55298;-36.624;-64.282;2024-03-02T07:44:33;3.55;;;2.60;;
59972;SDS011;55298;-36.624;-64.282;2024-03-02T07:47:02;3.45;;;2.80;;
59972;SDS011;55298;-36.624;-64.282;2024-03-02T07:49:40;3.22;;;2.92;;
59972;SDS011;55298;-36.624;-64.282;2024-03-02T07:52:07;3.63;;;3.25;;
59972;SDS011;55298;-36.624;-64.282;2024-03-02T07:54:38;3.33;;;3.00;;
59972;SDS011;55298;-36.624;-64.282;2024-03-02T07:57:09;3.80;;;2.75;;
59972;SDS011;55298;-36.624;-64.282;2024-03-02T07:59:39;3.33;;;2.45;;
59972;SDS011;55298;-36.624;-64.282;2024-03-02T08:02:07;4.28;;;3.40;;
59972;SDS011;55298;-36.624;-64.282;2024-03-02T08:04:34;3.67;;;2.65;;
59972;SDS011;55298;-36.624;-64.282;2024-03-02T08:07:02;2.92;;;2.25;;
59972;SDS011;55298;-36.624;-64.282;2024-03-02T08:09:30;2.63;;;2.20;;
59972;SDS011;55298;-36.624;-64.282;2024-03-02T08:11:58;3.17;;;2.20;;
59972;SDS011;55298;-36.624;-64.282;2024-03-02T08:14:28;3.78;;;2.45;;
59972;SDS011;55298;-36.624;-64.282;2024-03-02T08:16:57;3.22;;;2.50;;
59972;SDS011;55298;-36.624;-64.282;2024-03-02T08:19:27;2.58;;;2.13;;
59972;SDS011;55298;-36.624;-64.282;2024-03-02T08:21:55;5.40;;;2.30;;
59972;SDS011;55298;-36.624;-64.282;2024-03-02T08:24:25;3.45;;;2.20;;
59972;SDS011;55298;-36.624;-64.282;2024-03-02T08:26:54;4.40;;;2.50;;
59972;SDS011;55298;-36.624;-64.282;2024-03-02T08:29:21;2.95;;;2.38;;
59972;SDS011;55298;-36.624;-64.282;2024-03-02T08:31:49;3.28;;;2.28;;
59972;SDS011;55298;-36.624;-64.282;2024-03-02T08:34:17;4.47;;;2.67;;
59972;SDS011;55298;-36.624;-64.282;2024-03-02T08:36:46;3.35;;;2.22;;
59972;SDS011;55298;-36.624;-64.282;2024-03-02T08:39:14;3.70;;;2.40;;
59972;SDS011;55298;-36.624;-64.282;2024-03-02T08:41:42;3.22;;;2.25;;
59972;SDS011;55298;-36.624;-64.282;2024-03-02T08:44:13;3.17;;;2.10;;
59972;SDS011;55298;-36.624;-64.282;2024-03-02T08:46:41;2.85;;;2.10;;
59972;SDS011;55298;-36.624;-64.282;2024-03-02T08:49:09;2.42;;;2.00;;
59972;SDS011;55298;-36.624;-64.282;2024-03-02T08:51:36;2.55;;;1.90;;
59972;SDS011;55298;-36.624;-64.282;2024-03-02T08:54:04;2.85;;;2.03;;
59972;SDS011;55298;-36.624;-64.282;2024-03-02T08:56:32;2.47;;;1.92;;
59972;SDS011;55298;-36.624;-64.282;2024-03-02T08:58:59;2.33;;;2.00;;
59972;SDS011;55298;-36.624;-64.282;2024-03-02T09:01:27;3.33;;;2.00;;
59972;SDS011;55298;-36.624;-64.282;2024-03-02T09:03:55;2.05;;;1.95;;
59972;SDS011;55298;-36.624;-64.282;2024-03-02T09:06:22;2.58;;;1.80;;
59972;SDS011;55298;-36.624;-64.282;2024-03-02T09:08:50;2.30;;;2.10;;
59972;SDS011;55298;-36.624;-64.282;2024-03-02T09:11:18;2.33;;;1.80;;
59972;SDS011;55298;-36.624;-64.282;2024-03-02T09:13:46;2.95;;;1.70;;
59972;SDS011;55298;-36.624;-64.282;2024-03-02T09:16:16;2.15;;;1.60;;
59972;SDS011;55298;-36.624;-64.282;2024-03-02T09:18:43;3.47;;;1.77;;
59972;SDS011;55298;-36.624;-64.282;2024-03-02T09:21:11;1.98;;;1.80;;
59972;SDS011;55298;-36.624;-64.282;2024-03-02T09:23:42;3.47;;;1.67;;
59972;SDS011;55298;-36.624;-64.282;2024-03-02T09:26:11;2.25;;;1.63;;
59972;SDS011;55298;-36.624;-64.282;2024-03-02T09:28:45;2.40;;;1.60;;
59972;SDS011;55298;-36.624;-64.282;2024-03-02T09:31:13;1.88;;;1.77;;
59972;SDS011;55298;-36.624;-64.282;2024-03-02T09:33:41;1.70;;;1.50;;
59972;SDS011;55298;-36.624;-64.282;2024-03-02T09:36:19;2.17;;;1.70;;
59972;SDS011;55298;-36.624;-64.282;2024-03-02T09:38:48;1.60;;;1.50;;
59972;SDS011;55298;-36.624;-64.282;2024-03-02T09:41:16;1.67;;;1.50;;
59972;SDS011;55298;-36.624;-64.282;2024-03-02T09:43:44;2.15;;;1.30;;
59972;SDS011;55298;-36.624;-64.282;2024-03-02T09:46:14;4.03;;;1.40;;
59972;SDS011;55298;-36.624;-64.282;2024-03-02T09:48:44;6.90;;;1.90;;
59972;SDS011;55298;-36.624;-64.282;2024-03-02T09:51:13;1.85;;;1.40;;
59972;SDS011;55298;-36.624;-64.282;2024-03-02T09:53:44;5.35;;;1.60;;
59972;SDS011;55298;-36.624;-64.282;2024-03-02T09:56:14;3.13;;;1.40;;
59972;SDS011;55298;-36.624;-64.282;2024-03-02T09:58:44;1.98;;;1.60;;
59972;SDS011;55298;-36.624;-64.282;2024-03-02T10:01:13;3.40;;;1.50;;
59972;SDS011;55298;-36.624;-64.282;2024-03-02T10:03:44;2.47;;;1.75;;
59972;SDS011;55298;-36.624;-64.282;2024-03-02T10:08:54;1.85;;;1.30;;
59972;SDS011;55298;-36.624;-64.282;2024-03-02T10:11:30;1.20;;;1.20;;
59972;SDS011;55298;-36.624;-64.282;2024-03-02T10:14:07;2.88;;;1.50;;
59972;SDS011;55298;-36.624;-64.282;2024-03-02T10:16:37;2.42;;;1.45;;
59972;SDS011;55298;-36.624;-64.282;2024-03-02T10:21:58;1.55;;;1.40;;
59972;SDS011;55298;-36.624;-64.282;2024-03-02T10:24:34;4.05;;;1.67;;
59972;SDS011;55298;-36.624;-64.282;2024-03-02T10:27:07;1.60;;;1.48;;
59972;SDS011;55298;-36.624;-64.282;2024-03-02T10:29:41;2.58;;;1.40;;
59972;SDS011;55298;-36.624;-64.282;2024-03-02T10:32:11;2.63;;;1.65;;
59972;SDS011;55298;-36.624;-64.282;2024-03-02T10:34:40;3.15;;;1.40;;
59972;SDS011;55298;-36.624;-64.282;2024-03-02T10:37:10;4.57;;;1.65;;
59972;SDS011;55298;-36.624;-64.282;2024-03-02T10:39:39;1.98;;;1.67;;
59972;SDS011;55298;-36.624;-64.282;2024-03-02T10:42:07;2.40;;;1.50;;
59972;SDS011;55298;-36.624;-64.282;2024-03-02T10:44:35;3.78;;;1.75;;
59972;SDS011;55298;-36.624;-64.282;2024-03-02T10:47:04;3.33;;;1.88;;
59972;SDS011;55298;-36.624;-64.282;2024-03-02T10:49:32;4.00;;;2.03;;
59972;SDS011;55298;-36.624;-64.282;2024-03-02T10:52:00;5.35;;;2.05;;
59972;SDS011;55298;-36.624;-64.282;2024-03-02T10:54:28;1.73;;;1.40;;
59972;SDS011;55298;-36.624;-64.282;2024-03-02T10:57:01;4.93;;;1.77;;
59972;SDS011;55298;-36.624;-64.282;2024-03-02T10:59:34;2.00;;;1.65;;
59972;SDS011;55298;-36.624;-64.282;2024-03-02T11:02:05;4.00;;;1.90;;
59972;SDS011;55298;-36.624;-64.282;2024-03-02T11:04:37;2.13;;;1.48;;
59972;SDS011;55298;-36.624;-64.282;2024-03-02T11:07:07;7.80;;;3.20;;
59972;SDS011;55298;-36.624;-64.282;2024-03-02T11:09:38;2.60;;;1.60;;
59972;SDS011;55298;-36.624;-64.282;2024-03-02T11:15:03;2.55;;;1.40;;
59972;SDS011;55298;-36.624;-64.282;2024-03-02T11:17:36;2.78;;;1.65;;
59972;SDS011;55298;-36.624;-64.282;2024-03-02T11:20:06;3.78;;;1.65;;
59972;SDS011;55298;-36.624;-64.282;2024-03-02T11:22:35;4.35;;;1.77;;
59972;SDS011;55298;-36.624;-64.282;2024-03-02T11:25:04;3.85;;;1.58;;
59972;SDS011;55298;-36.624;-64.282;2024-03-02T11:30:51;3.17;;;1.42;;
59972;SDS011;55298;-36.624;-64.282;2024-03-02T11:33:22;4.07;;;2.20;;
59972;SDS011;55298;-36.624;-64.282;2024-03-02T11:35:56;2.38;;;1.40;;
59972;SDS011;55298;-36.624;-64.282;2024-03-02T11:38:27;6.40;;;3.78;;
59972;SDS011;55298;-36.624;-64.282;2024-03-02T11:40:59;4.00;;;1.50;;
59972;SDS011;55298;-36.624;-64.282;2024-03-02T11:43:36;2.65;;;1.48;;
59972;SDS011;55298;-36.624;-64.282;2024-03-02T11:46:05;2.42;;;1.58;;
59972;SDS011;55298;-36.624;-64.282;2024-03-02T11:48:34;3.10;;;1.35;;
59972;SDS011;55298;-36.624;-64.282;2024-03-02T11:51:03;4.85;;;1.55;;
59972;SDS011;55298;-36.624;-64.282;2024-03-02T11:53:32;4.60;;;1.63;;
59972;SDS011;55298;-36.624;-64.282;2024-03-02T11:56:01;3.17;;;1.23;;
59972;SDS011;55298;-36.624;-64.282;2024-03-02T11:58:35;2.97;;;1.15;;
59972;SDS011;55298;-36.624;-64.282;2024-03-02T12:01:06;3.80;;;1.30;;
59972;SDS011;55298;-36.624;-64.282;2024-03-02T12:03:34;6.05;;;1.48;;
59972;SDS011;55298;-36.624;-64.282;2024-03-02T12:06:04;3.17;;;1.35;;
59972;SDS011;55298;-36.624;-64.282;2024-03-02T12:08:32;4.35;;;1.50;;
59972;SDS011;55298;-36.624;-64.282;2024-03-02T12:11:03;2.83;;;1.02;;
59972;SDS011;55298;-36.624;-64.282;2024-03-02T12:13:32;2.33;;;1.15;;
59972;SDS011;55298;-36.624;-64.282;2024-03-02T12:16:00;1.70;;;1.05;;
59972;SDS011;55298;-36.624;-64.282;2024-03-02T12:18:28;2.15;;;1.15;;
59972;SDS011;55298;-36.624;-64.282;2024-03-02T12:20:55;3.40;;;1.08;;
59972;SDS011;55298;-36.624;-64.282;2024-03-02T12:23:30;3.10;;;1.60;;
59972;SDS011;55298;-36.624;-64.282;2024-03-02T12:26:02;3.63;;;1.13;;
59972;SDS011;55298;-36.624;-64.282;2024-03-02T12:28:39;1.75;;;1.00;;
59972;SDS011;55298;-36.624;-64.282;2024-03-02T12:31:11;4.57;;;1.08;;
59972;SDS011;55298;-36.624;-64.282;2024-03-02T12:33:47;2.55;;;0.98;;
59972;SDS011;55298;-36.624;-64.282;2024-03-02T12:36:27;2.88;;;1.08;;
59972;SDS011;55298;-36.624;-64.282;2024-03-02T12:38:57;3.67;;;0.95;;
59972;SDS011;55298;-36.624;-64.282;2024-03-02T12:41:38;4.70;;;1.02;;
59972;SDS011;55298;-36.624;-64.282;2024-03-02T12:44:10;5.78;;;1.08;;
59972;SDS011;55298;-36.624;-64.282;2024-03-02T12:46:50;3.38;;;1.35;;
59972;SDS011;55298;-36.624;-64.282;2024-03-02T12:49:21;5.38;;;1.38;;
59972;SDS011;55298;-36.624;-64.282;2024-03-02T12:51:49;8.57;;;4.65;;
59972;SDS011;55298;-36.624;-64.282;2024-03-02T12:54:21;3.60;;;1.30;;
59972;SDS011;55298;-36.624;-64.282;2024-03-02T12:56:50;2.80;;;1.10;;
59972;SDS011;55298;-36.624;-64.282;2024-03-02T12:59:20;5.13;;;1.17;;
59972;SDS011;55298;-36.624;-64.282;2024-03-02T13:01:52;3.92;;;0.95;;
59972;SDS011;55298;-36.624;-64.282;2024-03-02T13:04:24;3.33;;;1.10;;
59972;SDS011;55298;-36.624;-64.282;2024-03-02T13:06:55;3.35;;;1.13;;
59972;SDS011;55298;-36.624;-64.282;2024-03-02T13:09:23;7.30;;;1.40;;
59972;SDS011;55298;-36.624;-64.282;2024-03-02T13:11:53;8.43;;;1.98;;
59972;SDS011;55298;-36.624;-64.282;2024-03-02T13:14:22;5.93;;;1.35;;
59972;SDS011;55298;-36.624;-64.282;2024-03-02T13:16:51;4.18;;;1.77;;
59972;SDS011;55298;-36.624;-64.282;2024-03-02T13:19:19;5.05;;;0.90;;
59972;SDS011;55298;-36.624;-64.282;2024-03-02T13:21:47;2.72;;;1.05;;
59972;SDS011;55298;-36.624;-64.282;2024-03-02T13:24:19;11.90;;;2.50;;
59972;SDS011;55298;-36.624;-64.282;2024-03-02T13:26:47;4.00;;;0.85;;
59972;SDS011;55298;-36.624;-64.282;2024-03-02T13:29:17;2.60;;;0.80;;
59972;SDS011;55298;-36.624;-64.282;2024-03-02T13:31:45;3.85;;;1.00;;
59972;SDS011;55298;-36.624;-64.282;2024-03-02T13:34:15;3.58;;;0.98;;
59972;SDS011;55298;-36.624;-64.282;2024-03-02T13:36:51;5.30;;;0.80;;
59972;SDS011;55298;-36.624;-64.282;2024-03-02T13:39:20;2.80;;;1.13;;
59972;SDS011;55298;-36.624;-64.282;2024-03-02T13:41:49;3.78;;;0.90;;
59972;SDS011;55298;-36.624;-64.282;2024-03-02T13:44:19;2.97;;;1.00;;
59972;SDS011;55298;-36.624;-64.282;2024-03-02T13:46:47;3.67;;;0.80;;
59972;SDS011;55298;-36.624;-64.282;2024-03-02T13:49:20;3.92;;;1.30;;
59972;SDS011;55298;-36.624;-64.282;2024-03-02T13:51:50;5.57;;;1.67;;
59972;SDS011;55298;-36.624;-64.282;2024-03-02T13:56:49;3.90;;;1.00;;
59972;SDS011;55298;-36.624;-64.282;2024-03-02T13:59:18;2.25;;;1.13;;
59972;SDS011;55298;-36.624;-64.282;2024-03-02T14:01:50;3.28;;;1.00;;
59972;SDS011;55298;-36.624;-64.282;2024-03-02T14:04:19;3.95;;;1.02;;
59972;SDS011;55298;-36.624;-64.282;2024-03-02T14:06:47;2.55;;;1.00;;
59972;SDS011;55298;-36.624;-64.282;2024-03-02T14:09:14;2.10;;;1.10;;
59972;SDS011;55298;-36.624;-64.282;2024-03-02T14:11:42;4.00;;;1.33;;
59972;SDS011;55298;-36.624;-64.282;2024-03-02T14:14:10;1.85;;;1.02;;
59972;SDS011;55298;-36.624;-64.282;2024-03-02T14:16:39;2.45;;;1.10;;
59972;SDS011;55298;-36.624;-64.282;2024-03-02T14:19:06;3.88;;;0.90;;
59972;SDS011;55298;-36.624;-64.282;2024-03-02T14:21:36;2.22;;;1.15;;
59972;SDS011;55298;-36.624;-64.282;2024-03-02T14:24:04;1.35;;;1.13;;
59972;SDS011;55298;-36.624;-64.282;2024-03-02T14:26:34;3.10;;;1.10;;
59972;SDS011;55298;-36.624;-64.282;2024-03-02T14:29:03;3.38;;;0.90;;
59972;SDS011;55298;-36.624;-64.282;2024-03-02T14:31:32;4.97;;;1.00;;
59972;SDS011;55298;-36.624;-64.282;2024-03-02T14:34:00;3.70;;;0.80;;
59972;SDS011;55298;-36.624;-64.282;2024-03-02T14:36:28;3.35;;;1.02;;